Carson Sink, Nevada Weather observations

Data are for observation ending at time listed.
 Day   Time    Ave.   Ave.  Ave.  Vector   Max.   Stn.    Total    Solar   Ave.  
  of    of     Air    Rel.  Wind   Wind    Wind   Baro.  Precip.   Rad.    Soil  
Year   Day     Temp.  Hum.  Speed  Dir.    Gust   Pres.                    Temp. 
2014   (PST)    F      %     mph   deg.    mph     mb.     in.     W/m2     F   
------------------------------------------------------------------------------
 329   11:30   44.9    37    1.1   167      4.4   897.1    0.00     475     39.0
 329   11:40   45.7    34    3.2   173      5.8   896.8    0.00     469     39.4
 329   11:50   45.8    34    4.1   192      6.4   896.5    0.00     465     39.7
 329   12:00   46.4    32    4.4   222      6.5   896.3    0.00     465     40.1
 329   12:10   46.2    32    3.5   200      6.3   896.2    0.00     462     40.5
 329   12:20   47.0    31    3.1   199      6.1   896.0    0.00     456     40.9
 329   12:30   47.4    31    2.9   207      5.5   895.9    0.00     449     41.2
 329   12:40   48.4    30    2.5   212      6.3   895.8    0.00     442     41.6
 329   12:50   48.5    30    3.2   208      6.6   895.7    0.00     434     42.0
 329   13:00   48.9    29    2.5   226      4.7   895.5    0.00     413     42.4
 329   13:10   49.5    28    1.7   216      4.1   895.5    0.00     402     42.7
 329   13:20   50.8    27    2.2   210      5.3   895.5    0.00     408     43.1
 329   13:30   51.1    27    2.1   203      4.5   895.3    0.00     391     43.4
 329   13:40   51.7    26    2.3   165      4.9   895.1    0.00     369     43.8
 329   13:50   52.0    26    1.1   160      2.9   895.0    0.00     347     44.1
 329   14:00   52.8    25    2.2   211      5.1   895.0    0.00     326     44.4
 329   14:10   53.3    25    2.5   182      4.4   894.9    0.00     305     44.8
 329   14:20   54.1    24    1.7   194      4.5   894.9    0.00     287     45.1
 329   14:30   53.7    24    2.0   225      4.2   894.9    0.00     267     45.4
 329   14:40   54.7    24    1.0   230      2.7   894.9    0.00     245     45.6
 329   14:50   55.2    23    1.9   215      4.8   895.0    0.00     223     45.9
 329   15:00   54.5    24    2.4   226      4.6   894.9    0.00     201     46.1
 329   15:10   53.7    24    2.6   238      4.5   894.9    0.00     179     46.3
 329   15:20   54.0    24    2.6   239      4.5   894.8    0.00     157     46.5
 329   15:30   53.7    25    3.5   226      5.0   894.7    0.00     130     46.7
 329   15:40   53.9    25    2.4   220      3.7   894.6    0.00      92     46.8
 329   15:50   53.9    26    1.9   224      3.1   894.7    0.00      58     47.0
 329   16:00   53.7    27    0.3   216      1.1   894.8    0.00      45     47.1
 329   16:10   53.8    27    0.2   216      1.0   894.7    0.00      30     47.2
 329   16:20   52.8    27    0.3   216      1.1   894.7    0.00      22     47.2
 329   16:30   51.8    28    2.2    93      3.9   894.7    0.00      17     47.3
 329   16:40   49.1    35    3.0    85      3.8   894.6    0.00       7     47.2
 329   16:50   47.0    39    4.4    56      5.3   894.6    0.00       1     47.2
 329   17:00   45.1    41    5.7    48      6.5   894.5    0.00       0     47.2
 329   17:10   44.0    42    5.1    50      6.2   894.5    0.00       0     47.1
 329   17:20   43.0    44    4.4    44      5.7   894.5    0.00       0     47.1
 329   17:30   42.5    45    4.9    51      5.8   894.6    0.00       0     47.0
 329   17:40   41.9    45    5.3    56      5.7   894.6    0.00       0     46.9
 329   17:50   41.3    45    4.6    58      5.8   894.6    0.00       0     46.8
 329   18:00   41.8    44    4.0    46      4.7   894.6    0.00       0     46.7
 329   18:10   41.6    44    3.9    32      5.5   894.6    0.00       0     46.5
 329   18:20   41.6    45    4.7    33      5.8   894.7    0.00       0     46.4
 329   18:30   40.6    46    5.8    36      6.9   894.8    0.00       0     46.3
 329   18:40   38.5    49    4.9    51      6.3   894.8    0.00       0     46.1
 329   18:50   38.2    49    5.7    57      7.1   894.8    0.00       0     46.0
 329   19:00   38.5    47    4.7    46      5.5   894.8    0.00       0     45.9
 329   19:10   38.8    46    4.7    38      6.0   894.8    0.00       0     45.7
 329   19:20   37.8    48    4.7    46      5.2   894.9    0.00       0     45.6
 329   19:30   37.5    48    5.1    51      5.5   894.8    0.00       0     45.5
 329   19:40   37.0    48    4.9    46      5.7   894.9    0.00       0     45.3
 329   19:50   35.8    51    4.2    33      4.7   894.9    0.00       0     45.2
 329   20:00   34.7    52    4.7    35      6.3   894.9    0.00       0     45.1
 329   20:10   33.9    53    5.6    36      6.4   894.9    0.00       0     44.9
 329   20:20   33.7    54    6.1    39      6.7   894.9    0.00       0     44.8
 329   20:30   33.5    54    6.1    33      6.8   895.0    0.00       0     44.7
 329   20:40   33.1    55    6.0    33      6.9   895.1    0.00       0     44.5
 329   20:50   32.6    56    4.9    28      6.0   895.1    0.00       0     44.4
 329   21:00   32.4    56    4.2    25      4.7   895.2    0.00       0     44.2
 329   21:10   32.7    56    3.5    19      4.5   895.0    0.00       0     44.1
 329   21:20   32.7    56    2.2    28      3.5   894.9    0.00       0     43.9
 329   21:30   32.4    56    1.7   352      2.3   894.9    0.00       0     43.8
 329   21:40   32.1    56    2.2     6      3.4   894.9    0.00       0     43.7
 329   21:50   32.4    56    4.3    18      5.6   894.9    0.00       0     43.5
 329   22:00   33.0    56    6.2    36      7.0   894.9    0.00       0     43.4
 329   22:10   32.2    57    5.5    44      7.2   894.9    0.00       0     43.3
 329   22:20   30.8    59    4.9    44      5.6   894.8    0.00       0     43.1
 329   22:30   31.4    60    4.4    14      4.9   894.9    0.00       0     43.0
 329   22:40   31.2    60    3.8   338      4.8   894.9    0.00       0     42.9
 329   22:50   30.6    58    2.4   322      3.4   895.1    0.00       0     42.8
 329   23:00   29.7    59    1.6   328      2.5   895.0    0.00       0     42.7
 329   23:10   31.4    61    1.1    17      2.4   895.0    0.00       0     42.5
 329   23:20   30.1    59    2.7   117      6.0   895.0    0.00       0     42.4
 329   23:30   31.0    62    1.9    48      2.3   895.0    0.00       0     42.3
 329   23:40   32.2    62    3.3    13      4.7   895.0    0.00       0     42.2
 329   23:50   32.3    60    2.9   324      4.2   895.0    0.00       0     42.1
 330    0:00   31.4    61    2.3   316      3.5   895.0    0.00       0     42.0
 330    0:10   33.0    58    1.2   309      2.0   894.9    0.00       0     41.8
 330    0:20   32.5    55    0.6   132      2.6   894.8    0.00       0     41.7
 330    0:30   31.6    60    0.6    82      1.8   894.7    0.00       0     41.6
 330    0:40   32.4    61    2.0    36      3.1   894.7    0.00       0     41.5
 330    0:50   30.4    62    1.8    48      2.6   894.5    0.00       0     41.4
 330    1:00   28.1    60    2.5     9      4.1   894.4    0.00       0     41.3
 330    1:10   27.3    60    3.2     0      3.7   894.5    0.00       0     41.2
 330    1:20   26.6    60    3.0    18      3.8   894.4    0.00       0     41.1
 330    1:30   25.0    61    4.6    54      5.1   894.5    0.00       0     40.9
 330    1:40   24.6    64    4.2    40      5.6   894.6    0.00       0     40.8
 330    1:50   25.7    63    3.6    59      4.5   894.6    0.00       0     40.7
 330    2:00   24.7    64    3.7    65      4.5   894.6    0.00       0     40.7
 330    2:10   24.8    65    3.8    55      4.7   894.5    0.00       0     40.5
 330    2:20   23.9    64    4.3    50      4.9   894.6    0.00       0     40.4
 330    2:30   23.3    65    4.5    46      5.0   894.6    0.00       0     40.3
 330    2:40   23.2    65    5.0    39      5.6   894.6    0.00       0     40.2
 330    2:50   23.3    66    4.9    46      5.7   894.5    0.00       0     40.1
 330    3:00   23.6    66    4.3    48      5.5   894.4    0.00       0     40.0
 330    3:10   24.4    67    4.7    35      5.3   894.3    0.00       0     39.9
 330    3:20   24.9    67    4.1    47      5.3   894.2    0.00       0     39.8
 330    3:30   25.5    66    3.2    63      4.4   894.2    0.00       0     39.7
 330    3:40   24.5    66    1.7    60      2.6   894.3    0.00       0     39.6
 330    3:50   24.1    66    1.3    31      2.2   894.3    0.00       0     39.5
 330    4:00   23.4    66    0.9   337      1.9   894.3    0.00       0     39.4
 330    4:10   24.2    67    1.8    22      2.8   894.3    0.00       0     39.3
 330    4:20   25.0    67    2.4    59      3.4   894.3    0.00       0     39.1
 330    4:30   24.1    66    2.5    99      3.1   894.3    0.00       0     39.0
 330    4:40   23.6    67    2.8   124      3.4   894.4    0.00       0     38.9
 330    4:50   23.5    68    2.5   120      3.4   894.4    0.00       0     38.8
 330    5:00   25.0    69    0.6   120      1.2   894.4    0.00       0     38.8
 330    5:10   25.0    68    2.5    16      3.6   894.3    0.00       0     38.7
 330    5:20   24.2    68    3.7   339      4.1   894.4    0.00       0     38.6
 330    5:30   23.6    68    3.0   339      3.7   894.4    0.00       0     38.5
 330    5:40   23.6    69    3.4   354      4.4   894.4    0.00       0     38.4
 330    5:50   23.4    70    3.9     3      4.5   894.4    0.00       0     38.3
 330    6:00   22.8    70    4.2    31      4.6   894.5    0.00       0     38.2
 330    6:10   22.0    70    4.2    44      4.8   894.6    0.00       0     38.2
 330    6:20   21.4    70    3.6    55      4.2   894.7    0.00       0     38.1
 330    6:30   22.3    71    3.6    40      4.2   894.8    0.00       0     38.0
 330    6:40   22.5    70    3.6    39      4.3   894.7    0.00       1     37.9
 330    6:50   21.7    69    2.5    41      3.7   894.7    0.00       3     37.8
 330    7:00   21.4    69    1.3   107      1.6   894.8    0.00       6     37.7
 330    7:10   22.2    70    0.8   109      1.2   895.0    0.00       9     37.7
 330    7:20   24.1    71    1.8    15      2.6   895.1    0.00      42     37.6
 330    7:30   26.5    70    2.7    34      3.4   895.0    0.00      77     37.5
 330    7:40   26.7    68    3.2    32      3.7   894.9    0.00     110     37.4
 330    7:50   26.7    68    2.1    61      3.0   895.0    0.00     138     37.4
 330    8:00   26.8    66    2.5    18      3.3   895.1    0.00     162     37.4
 330    8:10   27.0    66    3.2    43      3.9   895.1    0.00     187     37.3
 330    8:20   28.0    66    2.5    54      3.7   895.0    0.00     211     37.3
 330    8:30   29.4    65    1.4    26      2.0   895.0    0.00     233     37.3
 330    8:40   30.2    63    1.0   312      2.0   895.1    0.00     255     37.3
 330    8:50   32.8    62    0.1   186      0.8   895.2    0.00     291     37.3
 330    9:00   35.8    58    0.4   190      1.2   895.2    0.00     313     37.3
 330    9:10   36.6    56    1.5   170      3.6   895.3    0.00     320     37.4
 330    9:20   36.6    56    1.6   184      2.5   895.3    0.00     294     37.5
 330    9:30   37.0    55    1.8   173      2.9   895.4    0.00     321     37.6
 330    9:40   36.8    56    2.4   164      3.3   895.4    0.00     369     37.7
 330    9:50   38.3    54    3.2   171      5.3   895.4    0.00     385     37.9
 330   10:00   39.8    52    2.9   169      4.4   895.4    0.00     400     38.0
 330   10:10   40.6    51    2.6   162      3.9   895.3    0.00     413     38.2
 330   10:20   41.6    49    3.1   165      4.7   895.2    0.00     425     38.4
 330   10:30   42.9    47    2.6   173      4.2   895.0    0.00     436     38.7
 330   10:40   44.3    45    2.3   172      3.7   894.8    0.00     446     38.9
 330   10:50   45.2    43    1.9   165      3.3   894.6    0.00     454     39.2
 330   11:00   46.8    41    0.8   129      1.8   894.4    0.00     461     39.5
 330   11:10   47.4    40    0.5    25      1.7   894.2    0.00     468     39.8
 330   11:20   48.6    38    0.7    17      2.4   894.0    0.00     471     40.1

Return to Carson Sink graphs page.


Western Regional Climate Center,wrcc@dri.edu